createdAt,value
2019-05-23T02:22:46.462Z,4.00
2019-05-23T02:23:46.457Z,4.00
2019-05-23T02:24:46.433Z,4.00
2019-05-23T02:25:46.424Z,4.00
2019-05-23T02:26:46.414Z,4.00
2019-05-23T02:27:46.411Z,4.00
2019-05-23T02:28:46.390Z,4.00
2019-05-23T02:29:46.419Z,4.00
2019-05-23T02:30:46.371Z,4.00
2019-05-23T02:31:46.365Z,8.00
2019-05-23T02:32:46.348Z,8.00
2019-05-23T02:33:46.340Z,4.00
2019-05-23T02:34:46.326Z,8.00
2019-05-23T02:35:46.312Z,8.00
2019-05-23T02:36:46.322Z,8.00
2019-05-23T02:37:46.291Z,12.00
2019-05-23T02:38:46.274Z,12.00
2019-05-23T02:39:46.267Z,12.00
2019-05-23T02:40:46.257Z,16.00
2019-05-23T02:41:46.254Z,16.00
2019-05-23T02:42:46.237Z,16.00
2019-05-23T02:43:46.224Z,20.00
2019-05-23T02:44:46.213Z,24.00
2019-05-23T02:45:46.198Z,24.00
2019-05-23T02:46:46.183Z,28.00
2019-05-23T02:47:46.224Z,32.00
2019-05-23T02:48:46.164Z,36.00
2019-05-23T02:49:46.152Z,40.00
2019-05-23T02:50:46.135Z,40.00
2019-05-23T02:51:46.134Z,48.00
2019-05-23T02:52:46.121Z,52.00
2019-05-23T02:53:46.110Z,56.00
2019-05-23T02:54:46.110Z,60.00
2019-05-23T02:55:46.104Z,60.00
2019-05-23T02:56:46.071Z,64.00
2019-05-23T02:57:46.060Z,68.00
2019-05-23T02:58:46.046Z,72.00
2019-05-23T02:59:46.034Z,76.00
2019-05-23T03:00:54.446Z,80.00
2019-05-23T03:02:10.490Z,84.00
2019-05-23T03:03:10.483Z,92.00
2019-05-23T03:04:10.473Z,96.00
2019-05-23T03:05:10.459Z,104.00
2019-05-23T03:06:10.448Z,108.00
2019-05-23T03:07:10.437Z,116.00
2019-05-23T03:08:10.426Z,120.00
2019-05-23T03:09:10.422Z,124.00
2019-05-23T03:10:10.431Z,132.00
2019-05-23T03:11:10.422Z,140.00
2019-05-23T03:12:10.432Z,144.00
2019-05-23T03:13:10.377Z,152.00
2019-05-23T03:14:10.378Z,156.00
2019-05-23T03:15:10.376Z,160.00
2019-05-23T03:16:10.377Z,172.00
2019-05-23T03:17:10.328Z,176.00
2019-05-23T03:18:10.316Z,188.00
2019-05-23T03:19:10.305Z,196.00
2019-05-23T03:20:10.290Z,208.00
2019-05-23T03:21:10.278Z,216.00
2019-05-23T03:22:10.282Z,224.00
2019-05-23T03:23:10.257Z,240.00
2019-05-23T03:24:10.247Z,252.00
2019-05-23T03:25:10.234Z,264.00
2019-05-23T03:26:10.227Z,280.00
2019-05-23T03:27:10.213Z,296.00
2019-05-23T03:28:10.204Z,312.00
2019-05-23T03:29:10.192Z,328.00
2019-05-23T03:30:10.183Z,344.00
2019-05-23T03:31:28.341Z,368.00
2019-05-23T03:32:11.176Z,388.00
2019-05-23T03:33:10.153Z,412.00
2019-05-23T03:34:10.138Z,440.00
2019-05-23T03:35:10.143Z,464.00
2019-05-23T03:36:10.133Z,488.00
2019-05-23T03:37:10.100Z,512.00
2019-05-23T03:38:10.096Z,532.00
2019-05-23T03:39:10.080Z,548.00
2019-05-23T03:40:10.071Z,568.00
2019-05-23T03:41:10.075Z,580.00
2019-05-23T03:42:10.057Z,592.00
2019-05-23T03:43:10.042Z,604.00
2019-05-23T03:44:10.028Z,620.00
2019-05-23T03:45:10.011Z,644.00
2019-05-23T03:46:09.998Z,668.00
2019-05-23T03:47:09.987Z,704.00
2019-05-23T03:48:09.981Z,736.00
2019-05-23T03:49:09.973Z,768.00
2019-05-23T03:50:09.952Z,808.00
2019-05-23T03:51:09.963Z,844.00
2019-05-23T03:52:09.942Z,872.00
2019-05-23T03:53:09.926Z,912.00
2019-05-23T03:54:09.909Z,956.00
2019-05-23T03:55:09.897Z,1004.00
2019-05-23T03:56:09.885Z,1064.00
2019-05-23T03:57:09.880Z,1124.00
2019-05-23T03:58:09.868Z,1184.00
2019-05-23T03:59:09.883Z,1232.00
2019-05-23T04:00:09.842Z,1268.00
2019-05-23T04:01:09.832Z,1268.00
2019-05-23T04:02:09.821Z,1248.00
2019-05-23T04:03:09.808Z,1220.00
2019-05-23T04:04:09.806Z,1180.00
2019-05-23T04:05:09.789Z,1180.00
2019-05-23T04:06:09.771Z,1164.00
2019-05-23T04:07:09.774Z,1104.00
2019-05-23T04:08:09.761Z,1064.00
2019-05-23T04:09:09.747Z,1108.00
2019-05-23T04:10:09.725Z,1116.00
2019-05-23T04:11:09.719Z,1132.00
2019-05-23T04:12:09.715Z,1148.00
2019-05-23T04:13:09.689Z,1168.00
2019-05-23T04:14:09.679Z,1180.00
2019-05-23T04:15:09.668Z,1200.00
2019-05-23T04:16:09.660Z,1212.00
2019-05-23T04:17:09.646Z,1208.00
2019-05-23T04:18:09.643Z,1204.00
2019-05-23T04:19:09.624Z,1208.00
2019-05-23T04:20:09.609Z,1236.00
2019-05-23T04:21:09.598Z,1244.00
2019-05-23T04:22:09.587Z,1260.00
2019-05-23T04:23:09.577Z,1284.00
2019-05-23T04:24:09.572Z,1268.00
2019-05-23T04:25:09.556Z,1264.00
2019-05-23T04:26:09.540Z,1344.00
2019-05-23T04:27:09.533Z,1384.00
2019-05-23T04:28:09.518Z,1304.00
2019-05-23T04:29:09.511Z,1376.00
2019-05-23T04:30:09.497Z,1464.00
2019-05-23T04:31:12.971Z,1476.00
2019-05-23T04:32:09.472Z,1440.00
2019-05-23T04:33:09.469Z,1564.00
2019-05-23T04:34:09.450Z,1656.00
2019-05-23T04:35:09.442Z,1712.00
2019-05-23T04:36:09.425Z,1796.00
2019-05-23T04:37:09.412Z,1920.00
2019-05-23T04:38:09.404Z,2104.00
2019-05-23T04:39:09.389Z,2512.00
2019-05-23T04:40:09.377Z,2732.00
2019-05-23T04:41:09.370Z,2432.00
2019-05-23T04:42:09.358Z,2340.00
2019-05-23T04:43:09.345Z,2836.00
2019-05-23T04:44:09.338Z,2608.00
2019-05-23T04:45:09.321Z,2204.00
2019-05-23T04:46:09.313Z,2132.00
2019-05-23T04:47:09.302Z,2168.00
2019-05-23T04:48:09.289Z,2256.00
2019-05-23T04:49:09.281Z,2668.00
2019-05-23T04:50:09.269Z,5160.00
2019-05-23T04:51:09.254Z,10744.00
2019-05-23T04:52:09.245Z,11040.00
2019-05-23T04:53:09.234Z,10964.00
2019-05-23T04:54:09.220Z,10776.00
2019-05-23T04:55:09.246Z,11548.00
2019-05-23T04:56:09.200Z,12412.00
2019-05-23T04:57:09.192Z,12152.00
2019-05-23T04:58:09.176Z,12432.00
2019-05-23T04:59:09.165Z,13068.00
2019-05-23T05:00:09.151Z,13440.00
2019-05-23T05:01:09.149Z,12804.00
2019-05-23T05:02:24.834Z,12852.00
2019-05-23T05:03:33.605Z,13144.00
2019-05-23T05:04:33.594Z,13224.00
2019-05-23T05:05:33.576Z,13600.00
2019-05-23T05:06:33.583Z,14460.00
2019-05-23T05:07:33.556Z,14716.00
2019-05-23T05:08:33.550Z,14816.00
2019-05-23T05:09:33.533Z,13852.00
2019-05-23T05:10:33.517Z,14976.00
2019-05-23T05:11:33.513Z,15432.00
2019-05-23T05:12:33.495Z,16080.00
2019-05-23T05:13:33.486Z,15968.00
2019-05-23T05:14:33.571Z,15832.00
2019-05-23T05:15:33.467Z,15844.00
2019-05-23T05:16:33.450Z,16864.00
2019-05-23T05:17:33.441Z,17768.00
2019-05-23T05:18:33.427Z,18336.00
2019-05-23T05:19:33.424Z,17508.00
2019-05-23T05:20:33.408Z,17464.00
2019-05-23T05:21:33.392Z,17240.00
2019-05-23T05:22:33.383Z,16424.00
2019-05-23T05:23:33.377Z,16648.00
2019-05-23T05:24:33.361Z,18688.00
2019-05-23T05:25:33.348Z,18464.00
2019-05-23T05:26:33.338Z,17588.00
2019-05-23T05:27:33.336Z,17840.00
2019-05-23T05:28:33.329Z,17852.00
2019-05-23T05:29:33.309Z,20320.00
2019-05-23T05:30:33.343Z,19296.00
2019-05-23T05:31:33.284Z,19008.00
2019-05-23T05:32:44.250Z,18784.00
2019-05-23T05:33:34.293Z,17836.00
2019-05-23T05:34:33.257Z,20288.00
2019-05-23T05:35:33.273Z,21760.00
2019-05-23T05:36:33.231Z,21568.00
2019-05-23T05:37:33.220Z,20960.00
2019-05-23T05:38:33.207Z,21120.00
2019-05-23T05:39:33.196Z,23104.00
2019-05-23T05:40:33.188Z,22976.00
2019-05-23T05:41:33.187Z,23296.00
2019-05-23T05:42:33.163Z,25600.00
2019-05-23T05:43:33.193Z,24832.00
2019-05-23T05:44:33.141Z,22400.00
2019-05-23T05:45:33.394Z,21664.00
2019-05-23T05:46:33.118Z,22464.00
2019-05-23T05:47:33.107Z,23264.00
2019-05-23T05:48:33.092Z,24672.00
2019-05-23T05:49:33.083Z,25600.00
2019-05-23T05:50:33.072Z,26368.00
2019-05-23T05:51:33.063Z,25888.00
2019-05-23T05:52:33.048Z,25920.00
2019-05-23T05:53:33.037Z,27424.00
2019-05-23T05:54:33.029Z,28000.00
2019-05-23T05:55:33.037Z,27584.00
2019-05-23T05:56:33.005Z,28576.00
2019-05-23T05:57:32.998Z,29664.00
2019-05-23T05:58:32.984Z,31232.00
2019-05-23T05:59:32.976Z,23168.00
2019-05-23T06:00:32.971Z,26944.00
2019-05-23T06:01:34.563Z,26528.00
2019-05-23T06:02:32.956Z,29056.00
2019-05-23T06:03:32.930Z,30752.00
2019-05-23T06:04:32.922Z,31008.00
2019-05-23T06:05:32.910Z,30368.00
2019-05-23T06:06:32.895Z,29600.00
2019-05-23T06:07:32.888Z,26528.00
2019-05-23T06:08:32.879Z,29536.00
2019-05-23T06:09:32.869Z,32896.00
2019-05-23T06:10:32.858Z,34880.00
2019-05-23T06:11:32.842Z,34944.00
2019-05-23T06:12:32.832Z,32288.00
2019-05-23T06:13:32.857Z,30816.00
2019-05-23T06:14:32.807Z,29920.00
2019-05-23T06:15:32.795Z,30816.00
2019-05-23T06:16:32.790Z,32032.00
2019-05-23T06:17:32.827Z,35680.00
2019-05-23T06:18:32.765Z,37472.00
2019-05-23T06:19:32.755Z,36480.00
2019-05-23T06:20:32.744Z,34912.00
2019-05-23T06:21:32.736Z,35008.00
2019-05-23T06:22:32.718Z,25856.00
2019-05-23T06:23:32.707Z,35968.00
2019-05-23T06:24:45.110Z,34592.00
2019-05-23T06:25:57.169Z,32640.00
2019-05-23T06:26:57.156Z,32992.00
2019-05-23T06:27:57.146Z,35872.00
2019-05-23T06:28:57.136Z,36032.00
2019-05-23T06:29:57.124Z,36160.00
2019-05-23T06:30:57.112Z,37728.00
2019-05-23T06:31:57.103Z,34944.00
2019-05-23T06:32:57.099Z,33184.00
2019-05-23T06:33:57.082Z,40544.00
2019-05-23T06:34:57.068Z,39840.00
2019-05-23T06:35:57.057Z,38496.00
2019-05-23T06:36:57.041Z,37056.00
2019-05-23T06:37:57.344Z,38976.00
2019-05-23T06:38:57.028Z,37344.00
2019-05-23T06:39:57.024Z,35904.00
2019-05-23T06:40:56.999Z,33632.00
2019-05-23T06:41:56.987Z,34720.00
2019-05-23T06:42:56.985Z,40096.00
2019-05-23T06:43:56.969Z,40768.00
2019-05-23T06:44:56.979Z,38048.00
2019-05-23T06:45:56.946Z,33824.00
2019-05-23T06:46:56.934Z,30304.00
2019-05-23T06:47:56.926Z,30656.00
2019-05-23T06:48:56.927Z,32224.00
2019-05-23T06:49:56.908Z,33696.00
2019-05-23T06:50:56.895Z,33280.00
2019-05-23T06:51:56.889Z,36192.00
2019-05-23T06:52:56.874Z,36000.00
2019-05-23T06:53:56.858Z,37088.00
2019-05-23T06:54:59.681Z,38176.00
2019-05-23T06:55:56.910Z,36800.00
2019-05-23T06:56:56.838Z,38080.00
2019-05-23T06:57:56.811Z,36864.00
2019-05-23T06:58:56.805Z,36256.00
2019-05-23T06:59:56.795Z,36352.00
2019-05-23T07:00:56.779Z,39456.00
2019-05-23T07:01:56.780Z,38112.00
2019-05-23T07:02:56.761Z,37120.00
2019-05-23T07:03:56.995Z,37536.00
2019-05-23T07:04:56.733Z,39264.00
2019-05-23T07:05:56.722Z,38912.00
2019-05-23T07:06:56.715Z,36864.00
2019-05-23T07:07:56.719Z,34176.00
2019-05-23T07:08:56.690Z,35616.00
2019-05-23T07:09:56.765Z,37920.00
2019-05-23T07:10:56.665Z,38048.00
2019-05-23T07:11:56.661Z,36352.00
2019-05-23T07:12:56.648Z,38592.00
2019-05-23T07:13:56.629Z,42880.00
2019-05-23T07:14:56.624Z,45216.00
2019-05-23T07:15:56.611Z,44512.00
2019-05-23T07:16:56.605Z,46880.00
2019-05-23T07:17:56.593Z,46432.00
2019-05-23T07:18:56.578Z,47840.00
2019-05-23T07:19:56.565Z,47264.00
2019-05-23T07:20:56.558Z,45856.00
2019-05-23T07:21:56.541Z,45632.00
2019-05-23T07:22:56.537Z,41984.00
2019-05-23T07:23:56.521Z,42464.00
2019-05-23T07:24:58.532Z,37856.00
2019-05-23T07:25:56.504Z,37696.00
2019-05-23T07:26:56.490Z,36960.00
2019-05-23T07:27:56.492Z,37824.00
2019-05-23T07:28:56.466Z,40352.00
2019-05-23T07:29:56.561Z,40864.00
2019-05-23T07:30:56.443Z,44256.00
2019-05-23T07:31:56.436Z,47456.00
2019-05-23T07:32:56.426Z,44736.00
2019-05-23T07:34:01.841Z,40480.00
2019-05-23T07:35:20.886Z,36416.00
2019-05-23T07:36:20.976Z,41984.00
2019-05-23T07:37:20.853Z,42656.00
2019-05-23T07:38:20.847Z,44192.00
2019-05-23T07:39:20.840Z,40192.00
2019-05-23T07:40:20.823Z,47424.00
2019-05-23T07:41:20.818Z,46048.00
2019-05-23T07:42:20.798Z,43424.00
2019-05-23T07:43:20.793Z,46304.00
2019-05-23T07:44:20.780Z,47712.00
2019-05-23T07:45:20.772Z,47328.00
2019-05-23T07:46:20.771Z,47584.00
2019-05-23T07:47:20.750Z,48704.00
2019-05-23T07:48:20.745Z,48608.00
2019-05-23T07:49:20.823Z,49632.00
2019-05-23T07:50:20.719Z,51360.00
2019-05-23T07:51:20.710Z,53184.00
2019-05-23T07:52:20.689Z,54624.00
2019-05-23T07:53:20.685Z,53952.00
2019-05-23T07:54:20.665Z,54240.00
2019-05-23T07:55:20.661Z,54848.00
2019-05-23T07:56:20.661Z,51840.00
2019-05-23T07:57:20.656Z,51936.00
2019-05-23T07:58:20.628Z,52992.00
2019-05-23T07:59:20.614Z,44448.00
2019-05-23T08:00:20.642Z,28448.00
2019-05-23T08:01:20.610Z,43552.00
2019-05-23T08:02:25.321Z,51840.00
2019-05-23T08:03:20.597Z,51424.00
2019-05-23T08:04:22.513Z,51168.00
2019-05-23T08:05:20.549Z,52032.00
2019-05-23T08:06:20.560Z,45664.00
2019-05-23T08:07:20.531Z,48672.00
2019-05-23T08:08:20.517Z,51648.00
2019-05-23T08:09:20.509Z,56608.00
2019-05-23T08:10:33.248Z,61248.00
2019-05-23T08:11:21.510Z,60960.00
2019-05-23T08:12:20.485Z,59136.00
2019-05-23T08:13:20.464Z,59488.00
2019-05-23T08:14:20.463Z,62400.00
2019-05-23T08:15:20.458Z,63808.00
2019-05-23T08:16:20.441Z,63136.00
2019-05-23T08:17:20.519Z,62432.00
2019-05-23T08:18:20.432Z,63520.00
2019-05-23T08:19:20.408Z,64960.00
2019-05-23T08:20:20.390Z,63072.00
2019-05-23T08:21:20.386Z,63456.00
2019-05-23T08:22:20.364Z,61760.00
2019-05-23T08:23:20.396Z,58368.00
2019-05-23T08:24:20.351Z,53696.00
2019-05-23T08:25:20.329Z,53888.00
2019-05-23T08:26:20.325Z,55424.00
2019-05-23T08:27:20.310Z,49216.00
2019-05-23T08:28:20.306Z,57632.00
2019-05-23T08:29:26.483Z,23104.00
2019-05-23T08:30:21.293Z,11620.00
2019-05-23T08:31:20.273Z,63200.00
2019-05-23T08:32:20.255Z,74272.00
2019-05-23T08:33:20.247Z,69920.00
2019-05-23T08:34:39.574Z,68640.00
2019-05-23T08:35:44.698Z,70368.00
2019-05-23T08:36:44.686Z,67648.00
2019-05-23T08:37:44.678Z,71456.00
2019-05-23T08:38:44.669Z,71264.00
2019-05-23T08:39:44.656Z,70528.00
2019-05-23T08:40:44.650Z,69696.00
2019-05-23T08:41:44.633Z,69184.00
2019-05-23T08:42:44.624Z,67040.00
2019-05-23T08:43:44.617Z,58016.00
2019-05-23T08:44:44.603Z,63296.00
2019-05-23T08:45:44.592Z,65184.00
2019-05-23T08:46:44.579Z,63808.00
2019-05-23T08:47:44.572Z,67392.00
2019-05-23T08:48:44.559Z,60096.00
2019-05-23T08:49:44.550Z,41600.00
2019-05-23T08:50:44.539Z,71232.00
2019-05-23T08:51:44.538Z,76192.00
2019-05-23T08:52:44.515Z,77536.00
2019-05-23T08:53:44.504Z,68800.00
2019-05-23T08:54:44.500Z,73408.00
2019-05-23T08:55:44.488Z,69984.00
2019-05-23T08:56:44.472Z,71168.00
2019-05-23T08:57:44.470Z,71904.00
2019-05-23T08:58:44.456Z,72544.00
2019-05-23T08:59:44.443Z,69120.00
2019-05-23T09:00:44.431Z,67552.00
2019-05-23T09:01:44.426Z,67968.00
2019-05-23T09:02:44.409Z,71712.00
2019-05-23T09:03:44.403Z,76896.00
2019-05-23T09:05:02.583Z,75200.00
2019-05-23T09:06:08.853Z,69952.00
2019-05-23T09:07:08.840Z,66112.00
2019-05-23T09:08:08.836Z,58688.00
2019-05-23T09:09:27.683Z,54784.00
2019-05-23T09:10:33.285Z,51424.00
2019-05-23T09:11:33.277Z,59136.00
2019-05-23T09:12:33.272Z,65280.00
2019-05-23T09:13:33.255Z,67744.00
2019-05-23T09:14:33.248Z,66048.00
2019-05-23T09:15:33.238Z,64096.00
2019-05-23T09:16:33.415Z,65888.00
2019-05-23T09:17:51.039Z,68736.00
2019-05-23T09:18:34.221Z,69536.00
2019-05-23T09:19:33.192Z,68608.00
2019-05-23T09:20:33.192Z,68928.00
2019-05-23T09:21:33.186Z,70400.00
2019-05-23T09:22:33.168Z,70592.00
2019-05-23T09:23:33.156Z,71808.00
2019-05-23T09:24:33.144Z,71008.00
2019-05-23T09:25:33.130Z,67328.00
2019-05-23T09:26:33.120Z,65600.00
2019-05-23T09:27:34.699Z,68032.00
2019-05-23T09:28:33.104Z,67136.00
2019-05-23T09:29:33.093Z,69824.00
2019-05-23T09:30:33.089Z,66976.00
2019-05-23T09:31:33.069Z,65952.00
2019-05-23T09:32:33.059Z,62656.00
2019-05-23T09:33:33.047Z,61920.00
2019-05-23T09:34:33.035Z,63328.00
2019-05-23T09:35:33.027Z,63552.00
2019-05-23T09:36:33.015Z,63040.00
2019-05-23T09:37:33.026Z,67616.00
2019-05-23T09:38:32.997Z,69280.00
2019-05-23T09:39:32.990Z,67712.00
2019-05-23T09:40:32.984Z,68768.00
2019-05-23T09:41:32.974Z,69536.00
2019-05-23T09:42:32.958Z,61184.00
2019-05-23T09:43:32.946Z,56032.00
2019-05-23T09:44:32.937Z,57248.00
2019-05-23T09:45:32.924Z,58176.00
2019-05-23T09:46:32.915Z,57600.00
2019-05-23T09:47:32.911Z,57216.00
2019-05-23T09:48:32.899Z,58976.00
2019-05-23T09:49:32.884Z,58944.00
2019-05-23T09:50:32.880Z,59296.00
2019-05-23T09:51:32.868Z,61568.00
2019-05-23T09:52:32.858Z,65568.00
2019-05-23T09:53:32.853Z,69728.00
2019-05-23T09:54:32.837Z,71392.00
2019-05-23T09:55:32.821Z,73568.00
2019-05-23T09:56:32.812Z,73920.00
2019-05-23T09:57:32.802Z,73888.00
2019-05-23T09:58:32.798Z,72384.00
2019-05-23T09:59:32.782Z,70592.00
2019-05-23T10:00:32.775Z,69216.00
2019-05-23T10:01:32.778Z,67808.00
2019-05-23T10:02:32.758Z,66048.00
2019-05-23T10:03:32.751Z,65920.00
2019-05-23T10:04:32.745Z,66560.00
2019-05-23T10:05:42.914Z,68064.00
2019-05-23T10:06:57.189Z,72544.00
2019-05-23T10:07:57.181Z,74336.00
2019-05-23T10:08:57.168Z,74272.00
2019-05-23T10:09:57.154Z,73184.00
2019-05-23T10:10:57.151Z,74688.00
2019-05-23T10:11:57.136Z,74688.00
2019-05-23T10:12:57.126Z,72096.00
2019-05-23T10:13:57.113Z,68128.00
2019-05-23T10:14:57.104Z,68352.00
2019-05-23T10:15:57.093Z,67104.00
2019-05-23T10:16:57.084Z,68576.00
2019-05-23T10:18:00.704Z,70304.00
2019-05-23T10:18:57.063Z,70496.00
2019-05-23T10:19:57.063Z,74176.00
2019-05-23T10:20:57.057Z,76448.00
2019-05-23T10:21:57.039Z,76672.00
2019-05-23T10:22:57.023Z,78304.00
2019-05-23T10:23:57.020Z,76256.00
2019-05-23T10:24:57.005Z,75392.00
2019-05-23T10:25:56.995Z,73920.00
2019-05-23T10:26:56.988Z,72640.00
2019-05-23T10:27:56.974Z,70656.00
2019-05-23T10:28:56.964Z,70432.00
2019-05-23T10:29:56.954Z,69696.00
2019-05-23T10:30:56.943Z,66688.00
2019-05-23T10:31:56.938Z,62208.00
2019-05-23T10:32:56.926Z,61696.00
2019-05-23T10:33:56.918Z,58912.00
2019-05-23T10:34:56.922Z,59648.00
2019-05-23T10:36:00.874Z,58464.00
2019-05-23T10:36:56.927Z,61056.00
2019-05-23T10:37:56.891Z,61312.00
2019-05-23T10:38:56.871Z,59712.00
2019-05-23T10:39:56.873Z,58112.00
2019-05-23T10:40:56.886Z,60608.00
2019-05-23T10:41:56.883Z,61184.00
2019-05-23T10:42:56.825Z,59552.00
2019-05-23T10:43:56.819Z,59520.00
2019-05-23T10:44:56.807Z,57824.00
2019-05-23T10:45:56.795Z,57376.00
2019-05-23T10:46:56.787Z,56352.00
2019-05-23T10:47:56.772Z,57120.00
2019-05-23T10:48:56.771Z,55232.00
2019-05-23T10:49:56.754Z,53248.00
2019-05-23T10:50:56.744Z,53568.00
2019-05-23T10:51:56.733Z,53088.00
2019-05-23T10:52:56.724Z,51840.00
2019-05-23T10:53:56.713Z,51456.00
2019-05-23T10:54:56.705Z,51040.00
2019-05-23T10:55:56.727Z,52096.00
2019-05-23T10:56:56.688Z,52192.00
2019-05-23T10:57:56.676Z,50368.00
2019-05-23T10:58:56.670Z,49312.00
2019-05-23T10:59:56.657Z,48864.00
2019-05-23T11:00:56.647Z,49760.00
2019-05-23T11:01:56.631Z,52384.00
2019-05-23T11:02:56.638Z,47584.00
2019-05-23T11:03:56.612Z,47456.00
2019-05-23T11:04:56.629Z,49280.00
2019-05-23T11:05:56.590Z,51264.00
2019-05-23T11:06:56.581Z,52096.00
2019-05-23T11:07:56.582Z,49760.00
2019-05-23T11:08:56.577Z,49600.00
2019-05-23T11:09:56.568Z,50624.00
2019-05-23T11:10:56.546Z,51680.00
2019-05-23T11:11:56.533Z,52320.00
2019-05-23T11:12:56.522Z,52928.00
2019-05-23T11:13:56.651Z,50912.00
2019-05-23T11:14:56.537Z,51104.00
2019-05-23T11:15:56.493Z,49952.00
2019-05-23T11:16:56.481Z,51072.00
2019-05-23T11:17:56.471Z,50880.00
2019-05-23T11:18:56.460Z,49184.00
2019-05-23T11:19:56.451Z,49216.00
2019-05-23T11:20:56.446Z,49184.00
2019-05-23T11:21:56.431Z,50080.00
2019-05-23T11:22:56.426Z,52160.00
2019-05-23T11:23:56.418Z,51616.00
2019-05-23T11:24:56.409Z,51136.00
2019-05-23T11:26:00.654Z,54176.00
2019-05-23T11:26:56.381Z,54976.00
2019-05-23T11:27:56.371Z,55488.00
2019-05-23T11:28:56.362Z,56128.00
2019-05-23T11:29:56.361Z,54016.00
2019-05-23T11:30:56.340Z,53856.00
2019-05-23T11:31:56.331Z,52000.00
2019-05-23T11:32:56.320Z,51968.00
2019-05-23T11:33:56.311Z,50688.00
2019-05-23T11:34:56.302Z,48896.00
2019-05-23T11:35:56.355Z,46272.00
2019-05-23T11:36:56.286Z,46816.00
2019-05-23T11:37:56.270Z,48832.00
2019-05-23T11:38:56.260Z,50048.00
2019-05-23T11:39:56.252Z,51584.00
2019-05-23T11:40:56.239Z,51392.00
2019-05-23T11:41:56.241Z,50080.00
2019-05-23T11:42:56.221Z,48448.00
2019-05-23T11:43:56.210Z,48544.00
2019-05-23T11:44:56.203Z,47840.00
2019-05-23T11:45:56.188Z,46816.00
2019-05-23T11:46:56.189Z,46080.00
2019-05-23T11:47:56.170Z,44128.00
2019-05-23T11:48:56.163Z,43008.00
2019-05-23T11:49:56.174Z,41952.00
2019-05-23T11:50:56.141Z,41440.00
2019-05-23T11:51:56.143Z,40960.00
2019-05-23T11:52:56.323Z,40000.00
2019-05-23T11:54:07.684Z,38976.00
2019-05-23T11:55:20.607Z,36288.00
2019-05-23T11:56:20.597Z,35936.00
2019-05-23T11:57:20.594Z,34464.00
2019-05-23T11:58:20.580Z,33632.00
2019-05-23T11:59:20.560Z,32000.00
2019-05-23T12:00:20.592Z,30112.00
2019-05-23T12:01:21.486Z,26432.00
2019-05-23T12:02:20.535Z,24192.00
2019-05-23T12:03:20.551Z,24160.00
2019-05-23T12:04:20.535Z,24480.00
2019-05-23T12:05:20.497Z,25312.00
2019-05-23T12:06:20.489Z,26496.00
2019-05-23T12:07:20.473Z,26592.00
2019-05-23T12:08:20.464Z,25696.00
2019-05-23T12:09:20.456Z,25312.00
2019-05-23T12:10:20.450Z,25120.00
2019-05-23T12:11:20.438Z,25056.00
2019-05-23T12:12:20.422Z,24608.00
2019-05-23T12:13:20.411Z,22944.00
2019-05-23T12:14:20.402Z,22144.00
2019-05-23T12:15:20.389Z,20448.00
2019-05-23T12:16:20.378Z,18748.00
2019-05-23T12:17:20.379Z,17568.00
2019-05-23T12:18:20.364Z,18112.00
2019-05-23T12:19:20.471Z,18676.00
2019-05-23T12:20:20.338Z,18448.00
2019-05-23T12:21:20.379Z,19300.00
2019-05-23T12:22:20.316Z,19812.00
2019-05-23T12:23:20.316Z,19824.00
2019-05-23T12:24:20.293Z,19808.00
2019-05-23T12:25:22.945Z,19808.00
2019-05-23T12:26:20.286Z,20096.00
2019-05-23T12:27:20.265Z,20000.00
2019-05-23T12:28:20.262Z,20384.00
2019-05-23T12:29:20.245Z,19612.00
2019-05-23T12:30:20.231Z,18992.00
2019-05-23T12:31:20.225Z,18344.00
2019-05-23T12:32:20.212Z,18664.00
2019-05-23T12:33:20.205Z,19064.00
2019-05-23T12:34:20.196Z,19416.00
2019-05-23T12:35:20.183Z,19592.00
2019-05-23T12:36:20.169Z,19504.00
2019-05-23T12:37:20.830Z,19836.00
2019-05-23T12:38:20.153Z,20736.00
2019-05-23T12:39:20.138Z,21216.00
2019-05-23T12:40:20.129Z,21792.00
2019-05-23T12:41:20.117Z,20768.00
2019-05-23T12:42:20.103Z,20092.00
2019-05-23T12:43:20.095Z,21152.00
2019-05-23T12:44:20.086Z,19272.00
2019-05-23T12:45:20.071Z,15184.00
2019-05-23T12:46:20.064Z,12576.00
2019-05-23T12:47:20.060Z,11924.00
2019-05-23T12:48:20.039Z,11548.00
2019-05-23T12:49:20.031Z,11128.00
2019-05-23T12:50:20.019Z,10768.00
2019-05-23T12:51:20.025Z,10348.00
2019-05-23T12:52:19.997Z,9912.00
2019-05-23T12:53:19.986Z,9452.00
2019-05-23T12:54:19.977Z,9076.00
2019-05-23T12:55:19.967Z,8616.00
2019-05-23T12:56:19.968Z,8148.00
2019-05-23T12:57:19.957Z,7668.00
2019-05-23T12:58:19.944Z,7168.00
2019-05-23T12:59:19.922Z,6784.00
2019-05-23T13:00:19.918Z,6516.00
2019-05-23T13:01:19.903Z,6320.00
2019-05-23T13:02:19.892Z,6144.00
2019-05-23T13:03:19.882Z,5972.00
2019-05-23T13:04:19.869Z,5780.00
2019-05-23T13:05:19.872Z,5628.00
2019-05-23T13:06:19.860Z,5516.00
2019-05-23T13:07:35.025Z,5420.00
2019-05-23T13:08:44.303Z,5296.00
2019-05-23T13:09:44.565Z,5188.00
2019-05-23T13:10:44.291Z,5108.00
2019-05-23T13:11:44.274Z,5028.00
2019-05-23T13:12:44.367Z,4940.00
2019-05-23T13:13:44.247Z,4880.00
2019-05-23T13:14:44.243Z,4828.00
2019-05-23T13:15:44.228Z,4772.00
2019-05-23T13:16:44.213Z,4716.00
2019-05-23T13:17:44.204Z,4692.00
2019-05-23T13:18:44.198Z,4668.00
2019-05-23T13:19:44.180Z,4676.00
2019-05-23T13:20:44.185Z,4668.00
2019-05-23T13:21:44.159Z,4656.00
2019-05-23T13:22:44.153Z,4672.00
2019-05-23T13:23:44.138Z,4708.00
2019-05-23T13:24:52.885Z,4788.00
2019-05-23T13:25:45.136Z,4868.00
2019-05-23T13:26:44.123Z,4932.00
2019-05-23T13:27:44.095Z,5000.00
2019-05-23T13:28:44.091Z,5060.00
2019-05-23T13:29:44.074Z,5136.00
2019-05-23T13:30:44.070Z,5208.00
2019-05-23T13:31:44.060Z,5280.00
2019-05-23T13:32:44.049Z,5332.00
2019-05-23T13:33:44.032Z,5400.00
2019-05-23T13:34:44.022Z,5444.00
2019-05-23T13:35:44.013Z,5540.00
2019-05-23T13:36:43.999Z,5580.00
2019-05-23T13:37:53.057Z,5632.00
2019-05-23T13:38:44.997Z,5644.00
2019-05-23T13:39:43.972Z,5632.00
2019-05-23T13:40:43.957Z,5624.00
2019-05-23T13:41:43.949Z,5600.00
2019-05-23T13:42:43.934Z,5464.00
2019-05-23T13:43:43.928Z,5556.00
2019-05-23T13:44:43.926Z,5508.00
2019-05-23T13:45:43.909Z,5428.00
2019-05-23T13:46:43.900Z,5360.00
2019-05-23T13:47:43.879Z,5280.00
2019-05-23T13:48:43.873Z,5196.00
2019-05-23T13:49:43.858Z,5124.00
2019-05-23T13:50:43.853Z,5092.00
2019-05-23T13:51:43.975Z,5132.00
2019-05-23T13:52:43.827Z,5052.00
2019-05-23T13:53:43.819Z,5004.00
2019-05-23T13:54:43.819Z,4872.00
2019-05-23T13:55:43.815Z,4732.00
2019-05-23T13:56:47.566Z,4708.00
2019-05-23T13:57:43.773Z,4700.00
2019-05-23T13:58:43.769Z,4732.00
2019-05-23T13:59:43.753Z,4688.00
2019-05-23T14:00:43.746Z,4616.00
2019-05-23T14:01:43.739Z,4568.00
2019-05-23T14:02:43.719Z,4624.00
2019-05-23T14:03:43.710Z,4632.00
2019-05-23T14:04:43.696Z,4592.00
2019-05-23T14:05:43.687Z,4552.00
2019-05-23T14:06:43.761Z,4536.00
2019-05-23T14:07:43.670Z,4576.00
2019-05-23T14:08:43.659Z,4644.00
2019-05-23T14:09:43.642Z,4708.00
2019-05-23T14:10:43.628Z,4716.00
2019-05-23T14:11:43.618Z,4740.00
2019-05-23T14:12:43.614Z,4788.00
2019-05-23T14:13:43.617Z,4808.00
2019-05-23T14:14:43.596Z,4872.00
2019-05-23T14:15:43.578Z,4976.00
2019-05-23T14:16:43.567Z,5084.00
2019-05-23T14:17:43.557Z,5180.00
2019-05-23T14:18:43.577Z,5240.00
2019-05-23T14:19:43.532Z,5284.00
2019-05-23T14:20:43.530Z,5372.00
2019-05-23T14:21:43.510Z,5536.00